createdAt,value
2022-08-16T00:01:22.180Z,26.47
2022-08-16T00:03:52.905Z,27.20
2022-08-16T00:06:21.391Z,28.27
2022-08-16T00:08:52.426Z,27.17
2022-08-16T00:11:22.490Z,27.10
2022-08-16T00:13:55.776Z,26.90
2022-08-16T00:17:01.535Z,26.80
2022-08-16T00:19:14.046Z,27.10
2022-08-16T00:21:42.780Z,27.47
2022-08-16T00:24:12.255Z,27.27
2022-08-16T00:26:45.096Z,26.97
2022-08-16T00:29:15.773Z,26.33
2022-08-16T00:31:59.867Z,28.60
2022-08-16T00:34:43.744Z,26.47
2022-08-16T00:37:16.899Z,26.30
2022-08-16T00:39:47.204Z,26.90
2022-08-16T00:42:30.750Z,28.17
2022-08-16T00:45:08.219Z,28.40
2022-08-16T00:47:38.427Z,26.90
2022-08-16T00:50:08.209Z,28.23
2022-08-16T00:52:45.792Z,28.70
2022-08-16T00:55:19.566Z,29.53
2022-08-16T00:57:59.255Z,27.23
2022-08-16T01:00:29.223Z,28.07
2022-08-16T01:02:58.223Z,27.60
2022-08-16T01:05:26.720Z,27.60
2022-08-16T01:07:55.092Z,28.43
2022-08-16T01:10:32.611Z,28.30
2022-08-16T01:13:05.310Z,27.33
2022-08-16T01:15:34.382Z,27.97
2022-08-16T01:18:02.847Z,28.50
2022-08-16T01:20:34.095Z,28.23
2022-08-16T01:23:04.328Z,27.43
2022-08-16T01:25:38.989Z,28.87
2022-08-16T01:28:08.227Z,29.47
2022-08-16T01:30:40.084Z,27.20
2022-08-16T01:33:19.314Z,28.93
2022-08-16T01:35:52.644Z,28.40
2022-08-16T01:38:22.561Z,28.73
2022-08-16T01:40:56.596Z,29.60
2022-08-16T01:43:25.137Z,29.03
2022-08-16T01:45:57.872Z,28.17
2022-08-16T01:48:27.885Z,28.87
2022-08-16T01:51:08.908Z,28.03
2022-08-16T01:53:44.740Z,27.60
2022-08-16T01:56:25.473Z,28.33
2022-08-16T01:58:54.870Z,28.83
2022-08-16T02:01:27.918Z,28.33
2022-08-16T02:03:58.245Z,27.77
2022-08-16T02:06:34.824Z,28.43
2022-08-16T02:09:06.221Z,29.23
2022-08-16T02:11:48.861Z,27.83
2022-08-16T02:14:22.395Z,27.93
2022-08-16T02:16:54.814Z,27.33
2022-08-16T02:19:24.711Z,27.30
2022-08-16T02:22:34.814Z,26.27
2022-08-16T02:25:02.398Z,27.60
2022-08-16T02:27:32.543Z,27.20
2022-08-16T02:30:05.172Z,27.50
2022-08-16T02:32:50.168Z,28.90
2022-08-16T02:35:23.647Z,29.60
2022-08-16T02:37:53.434Z,27.10
2022-08-16T02:40:25.601Z,28.70
2022-08-16T02:42:55.695Z,29.30
2022-08-16T02:45:27.826Z,30.27
2022-08-16T02:48:00.235Z,29.17
2022-08-16T02:50:53.659Z,29.13
2022-08-16T02:53:31.099Z,28.23
2022-08-16T02:56:00.346Z,29.33
2022-08-16T02:58:32.577Z,28.73
2022-08-16T03:01:01.099Z,29.87
2022-08-16T03:04:41.394Z,29.17
2022-08-16T03:06:39.116Z,29.03
2022-08-16T03:09:13.623Z,29.17
2022-08-16T03:11:43.177Z,28.50
2022-08-16T03:14:13.212Z,28.37
2022-08-16T03:16:58.780Z,29.33
2022-08-16T03:19:46.829Z,28.90
2022-08-16T03:22:19.184Z,28.93
2022-08-16T03:24:58.361Z,29.10
2022-08-16T03:27:30.529Z,29.20
2022-08-16T03:30:01.389Z,28.67
2022-08-16T03:32:30.412Z,30.93
2022-08-16T03:34:58.794Z,30.17
2022-08-16T03:37:27.199Z,30.53
2022-08-16T03:40:02.575Z,29.77
2022-08-16T03:42:31.607Z,31.07
2022-08-16T03:45:03.063Z,32.80
2022-08-16T03:47:34.259Z,31.33
2022-08-16T03:50:03.448Z,32.90
2022-08-16T03:52:52.791Z,33.70
2022-08-16T03:55:31.392Z,33.83
2022-08-16T03:58:13.695Z,34.03
2022-08-16T04:00:43.521Z,34.37
2022-08-16T04:03:11.900Z,34.43
2022-08-16T04:05:43.955Z,35.33
2022-08-16T04:08:23.021Z,35.67
2022-08-16T04:10:53.078Z,37.17
2022-08-16T04:14:00.334Z,35.63
2022-08-16T04:16:26.682Z,36.07
2022-08-16T04:19:02.386Z,35.43
2022-08-16T04:21:32.010Z,35.50
2022-08-16T04:24:00.787Z,34.43
2022-08-16T04:26:30.702Z,35.10
2022-08-16T04:29:14.675Z,34.97
2022-08-16T04:31:56.873Z,35.33
2022-08-16T04:34:26.981Z,36.33
2022-08-16T04:36:55.370Z,36.47
2022-08-16T04:39:36.543Z,36.50
2022-08-16T04:42:11.356Z,34.77
2022-08-16T04:44:54.120Z,35.80
2022-08-16T04:47:25.192Z,37.03
2022-08-16T04:50:00.228Z,35.93
2022-08-16T04:52:34.942Z,36.43
2022-08-16T04:55:18.565Z,36.93
2022-08-16T04:57:53.668Z,35.23
2022-08-16T05:00:31.711Z,36.03
2022-08-16T05:03:07.508Z,36.50
2022-08-16T05:05:44.977Z,35.03
2022-08-16T05:08:29.368Z,34.80
2022-08-16T05:11:00.278Z,36.90
2022-08-16T05:13:40.300Z,37.80
2022-08-16T05:16:19.734Z,38.53
2022-08-16T05:18:50.286Z,36.37
2022-08-16T05:21:20.827Z,35.67
2022-08-16T05:23:55.442Z,36.27
2022-08-16T05:26:24.782Z,37.33
2022-08-16T05:28:56.576Z,37.43
2022-08-16T05:31:29.590Z,35.60
2022-08-16T05:34:00.463Z,37.70
2022-08-16T05:36:33.875Z,37.00
2022-08-16T05:39:05.495Z,37.63
2022-08-16T05:41:45.290Z,37.13
2022-08-16T05:44:23.078Z,37.77
2022-08-16T05:46:53.472Z,38.03
2022-08-16T05:49:24.314Z,38.27
2022-08-16T05:51:55.442Z,38.87
2022-08-16T05:54:24.923Z,37.90
2022-08-16T05:56:54.151Z,38.27
2022-08-16T05:59:24.228Z,38.50
2022-08-16T06:01:55.402Z,38.93
2022-08-16T06:04:35.044Z,36.60
2022-08-16T06:07:09.014Z,37.53
2022-08-16T06:09:52.741Z,38.53
2022-08-16T06:12:27.040Z,37.40
2022-08-16T06:14:58.899Z,38.53
2022-08-16T06:17:41.565Z,40.50
2022-08-16T06:20:18.577Z,39.53
2022-08-16T06:23:02.903Z,40.57
2022-08-16T06:25:35.845Z,39.47
2022-08-16T06:28:08.846Z,41.47
2022-08-16T06:30:43.789Z,42.47
2022-08-16T06:33:13.550Z,42.13
2022-08-16T06:35:55.236Z,44.27
2022-08-16T06:38:33.639Z,43.40
2022-08-16T06:41:03.920Z,43.03
2022-08-16T06:43:32.438Z,43.90
2022-08-16T06:46:00.845Z,42.77
2022-08-16T06:48:33.776Z,43.83
2022-08-16T06:51:04.830Z,43.43
2022-08-16T06:53:37.163Z,44.30
2022-08-16T06:56:13.882Z,44.40
2022-08-16T06:58:43.448Z,45.30
2022-08-16T07:01:14.932Z,45.53
2022-08-16T07:03:54.656Z,46.73
2022-08-16T07:06:27.090Z,46.10
2022-08-16T07:08:56.015Z,45.47
2022-08-16T07:11:45.833Z,46.80
2022-08-16T07:14:24.121Z,44.27
2022-08-16T07:16:55.203Z,44.67
2022-08-16T07:19:33.620Z,44.77
2022-08-16T07:22:37.314Z,43.60
2022-08-16T07:25:02.363Z,43.27
2022-08-16T07:27:32.139Z,44.10
2022-08-16T07:30:02.426Z,44.63
2022-08-16T07:32:33.214Z,42.77
2022-08-16T07:35:03.528Z,42.97
2022-08-16T07:37:33.474Z,44.70
2022-08-16T07:40:02.355Z,45.43
2022-08-16T07:42:39.631Z,43.93
2022-08-16T07:45:10.491Z,42.67
2022-08-16T07:47:39.063Z,43.27
2022-08-16T07:50:56.351Z,45.07
2022-08-16T07:53:01.990Z,45.03
2022-08-16T07:55:45.650Z,43.70
2022-08-16T07:58:18.421Z,43.30
2022-08-16T08:01:10.041Z,45.33
2022-08-16T08:03:42.527Z,44.73
2022-08-16T08:06:14.256Z,44.50
2022-08-16T08:08:49.489Z,46.67
2022-08-16T08:11:21.432Z,43.93
2022-08-16T08:13:50.704Z,45.30
2022-08-16T08:16:20.948Z,45.03
2022-08-16T08:18:49.888Z,44.47
2022-08-16T08:21:26.372Z,45.13
2022-08-16T08:24:01.002Z,45.13
2022-08-16T08:26:29.789Z,43.63
2022-08-16T08:29:00.985Z,47.53
2022-08-16T08:31:30.068Z,45.97
2022-08-16T08:34:00.602Z,45.30
2022-08-16T08:36:33.761Z,44.70
2022-08-16T08:39:12.926Z,42.30
2022-08-16T08:41:42.235Z,44.47
2022-08-16T08:44:28.691Z,43.27
2022-08-16T08:46:59.735Z,42.10
2022-08-16T08:49:50.737Z,41.70
2022-08-16T08:52:34.869Z,39.77
2022-08-16T08:55:10.622Z,39.67
2022-08-16T08:57:40.698Z,38.77
2022-08-16T09:00:13.897Z,38.63
2022-08-16T09:02:52.114Z,38.07
2022-08-16T09:05:22.168Z,36.43
2022-08-16T09:08:00.576Z,36.97
2022-08-16T09:10:33.693Z,36.43
2022-08-16T09:13:02.442Z,35.37
2022-08-16T09:15:32.905Z,33.43
2022-08-16T09:18:24.792Z,35.20
2022-08-16T09:20:59.432Z,34.17
2022-08-16T09:23:29.264Z,32.70
2022-08-16T09:25:59.047Z,32.00
2022-08-16T09:29:13.658Z,31.77
2022-08-16T09:31:17.243Z,32.60
2022-08-16T09:33:45.926Z,33.10
2022-08-16T09:36:31.613Z,33.17
2022-08-16T09:39:02.451Z,32.43
2022-08-16T09:41:32.950Z,29.23
2022-08-16T09:45:12.044Z,30.07
2022-08-16T09:46:57.496Z,29.00
2022-08-16T09:49:37.127Z,29.10
2022-08-16T09:52:06.222Z,29.77
2022-08-16T09:54:38.010Z,29.10
2022-08-16T09:57:12.369Z,28.50
2022-08-16T09:59:42.100Z,28.20
2022-08-16T10:02:27.179Z,28.87
2022-08-16T10:04:56.699Z,29.67
2022-08-16T10:07:25.443Z,28.07
2022-08-16T10:09:55.638Z,27.00
2022-08-16T10:12:44.117Z,23.70
2022-08-16T10:15:15.109Z,24.43
2022-08-16T10:17:45.814Z,22.70
2022-08-16T10:20:28.842Z,24.00
2022-08-16T10:23:03.670Z,25.50
2022-08-16T10:27:18.631Z,24.43
2022-08-16T10:28:29.621Z,24.83
2022-08-16T10:30:59.788Z,24.30
2022-08-16T10:33:29.751Z,23.33
2022-08-16T10:36:03.850Z,24.00
2022-08-16T10:38:33.120Z,23.67
2022-08-16T10:41:05.058Z,24.40
2022-08-16T10:43:36.837Z,24.47
2022-08-16T10:46:39.768Z,24.27
2022-08-16T10:49:05.092Z,24.33
2022-08-16T10:52:02.665Z,21.53
2022-08-16T10:54:29.367Z,21.60
2022-08-16T10:57:04.252Z,21.87
2022-08-16T10:59:46.762Z,21.77
2022-08-16T11:02:59.018Z,21.07
2022-08-16T11:05:14.888Z,22.40
2022-08-16T11:07:53.338Z,21.83
2022-08-16T11:16:25.448Z,23.13
2022-08-16T11:19:03.432Z,21.70
2022-08-16T11:21:33.543Z,19.77
2022-08-16T11:24:03.462Z,22.17
2022-08-16T11:29:41.327Z,20.73
2022-08-16T11:32:11.394Z,19.20
2022-08-16T11:35:06.153Z,19.10
2022-08-16T11:38:04.601Z,19.50
2022-08-16T11:40:21.850Z,18.33
2022-08-16T11:43:01.397Z,19.10
2022-08-16T11:45:33.808Z,18.93
2022-08-16T11:48:05.164Z,18.30
2022-08-16T11:50:33.987Z,18.93
2022-08-16T11:53:03.793Z,19.27
2022-08-16T11:55:32.605Z,18.00
2022-08-16T11:58:02.195Z,19.23
2022-08-16T12:00:34.206Z,17.70
2022-08-16T12:03:31.418Z,16.57
2022-08-16T12:06:08.133Z,16.33
2022-08-16T12:08:39.978Z,15.47
2022-08-16T12:11:09.861Z,17.00
2022-08-16T12:13:38.399Z,15.80
2022-08-16T12:16:09.209Z,17.97
2022-08-16T12:18:40.251Z,15.70
2022-08-16T12:21:11.690Z,16.67
2022-08-16T12:23:40.109Z,15.57
2022-08-16T12:26:10.500Z,14.57
2022-08-16T12:28:54.711Z,16.55
2022-08-16T12:31:24.977Z,14.13
2022-08-16T12:33:57.717Z,13.43
2022-08-16T12:36:29.768Z,12.15
2022-08-16T12:38:59.225Z,11.90
2022-08-16T12:41:27.687Z,13.82
2022-08-16T12:43:57.067Z,13.80
2022-08-16T12:46:31.073Z,12.82
2022-08-16T12:49:00.225Z,12.20
2022-08-16T12:51:58.902Z,13.27
2022-08-16T12:54:21.677Z,11.98
2022-08-16T12:56:50.431Z,13.27
2022-08-16T12:59:20.525Z,13.80
2022-08-16T13:01:50.235Z,12.20
2022-08-16T13:04:24.655Z,12.57
2022-08-16T13:06:53.636Z,11.35
2022-08-16T13:09:26.867Z,11.57
2022-08-16T13:12:03.389Z,12.05
2022-08-16T13:14:37.912Z,12.77
2022-08-16T13:17:07.050Z,12.38
2022-08-16T13:20:06.652Z,13.60
2022-08-16T13:22:26.657Z,14.93
2022-08-16T13:24:55.148Z,17.03
2022-08-16T13:28:15.228Z,17.40
2022-08-16T13:30:35.377Z,18.43
2022-08-16T13:33:00.832Z,20.33
2022-08-16T13:35:32.994Z,17.20
2022-08-16T13:38:03.092Z,18.10
2022-08-16T13:40:31.744Z,16.67
2022-08-16T13:43:01.405Z,17.27
2022-08-16T13:45:33.210Z,16.63
2022-08-16T13:48:05.412Z,15.73
2022-08-16T13:50:49.955Z,14.57
2022-08-16T13:53:24.386Z,14.70
2022-08-16T13:55:59.040Z,17.30
2022-08-16T13:58:35.366Z,18.13
2022-08-16T14:01:09.763Z,17.33
2022-08-16T14:03:39.325Z,16.60
2022-08-16T14:06:10.551Z,16.30
2022-08-16T14:08:41.989Z,14.63
2022-08-16T14:11:12.193Z,12.37
2022-08-16T14:13:41.063Z,13.33
2022-08-16T14:16:24.204Z,12.27
2022-08-16T14:18:58.199Z,17.43
2022-08-16T14:21:28.018Z,16.27
2022-08-16T14:24:12.868Z,14.30
2022-08-16T14:26:51.138Z,14.70
2022-08-16T14:29:21.432Z,14.53
2022-08-16T14:31:53.530Z,15.27
2022-08-16T14:34:25.586Z,13.77
2022-08-16T14:36:59.801Z,14.93
2022-08-16T14:39:28.384Z,14.63
2022-08-16T14:41:57.228Z,14.97
2022-08-16T14:44:26.172Z,14.00
2022-08-16T14:46:56.729Z,15.87
2022-08-16T14:49:25.402Z,16.23
2022-08-16T14:51:53.931Z,14.20
2022-08-16T14:54:28.643Z,14.67
2022-08-16T14:56:58.865Z,15.17
2022-08-16T14:59:27.322Z,13.47
2022-08-16T15:02:00.690Z,13.13
2022-08-16T15:04:36.807Z,13.30
2022-08-16T15:07:11.254Z,13.30
2022-08-16T15:09:44.345Z,12.87
2022-08-16T15:12:30.948Z,11.83
2022-08-16T15:15:04.478Z,11.80
2022-08-16T15:17:41.495Z,11.00
2022-08-16T15:20:10.979Z,9.77
2022-08-16T15:22:40.389Z,8.63
2022-08-16T15:25:14.568Z,9.03
2022-08-16T15:27:44.585Z,7.47
2022-08-16T15:30:57.214Z,7.10
2022-08-16T15:33:02.974Z,6.40
2022-08-16T15:35:33.452Z,6.23
2022-08-16T15:38:09.256Z,7.43
2022-08-16T15:40:57.926Z,6.90
2022-08-16T15:43:39.231Z,7.53
2022-08-16T15:46:35.789Z,7.57
2022-08-16T15:49:12.769Z,7.57
2022-08-16T15:51:43.534Z,8.00
2022-08-16T15:54:21.112Z,7.53
2022-08-16T15:57:10.939Z,7.87
2022-08-16T15:59:48.543Z,9.30
2022-08-16T16:02:27.244Z,9.57
2022-08-16T16:05:00.548Z,11.07
2022-08-16T16:07:30.565Z,12.43
2022-08-16T16:09:59.585Z,11.90
2022-08-16T16:12:51.417Z,12.03
2022-08-16T16:15:19.129Z,12.63
2022-08-16T16:17:52.584Z,13.13
2022-08-16T16:20:21.851Z,12.43
2022-08-16T16:22:52.833Z,13.27
2022-08-16T16:25:21.394Z,12.70
2022-08-16T16:27:55.833Z,15.63
2022-08-16T16:30:37.332Z,12.43
2022-08-16T16:33:15.797Z,12.53
2022-08-16T16:35:56.792Z,12.50
2022-08-16T16:38:32.188Z,12.03
2022-08-16T16:41:00.972Z,14.57
2022-08-16T16:43:33.204Z,13.37
2022-08-16T16:46:02.138Z,12.50
2022-08-16T16:48:34.995Z,12.33
2022-08-16T16:51:09.127Z,12.97
2022-08-16T16:53:38.247Z,11.50
2022-08-16T16:56:08.668Z,12.53
2022-08-16T16:58:56.498Z,13.73
2022-08-16T17:01:41.396Z,13.10
2022-08-16T17:04:19.598Z,14.27
2022-08-16T17:06:53.680Z,14.57
2022-08-16T17:09:25.867Z,14.37
2022-08-16T17:11:55.906Z,13.47
2022-08-16T17:14:32.653Z,13.80
2022-08-16T17:17:04.053Z,12.40
2022-08-16T17:19:32.701Z,12.83
2022-08-16T17:22:02.115Z,13.30
2022-08-16T17:24:40.020Z,14.17
2022-08-16T17:27:17.784Z,13.13
2022-08-16T17:29:51.306Z,12.70
2022-08-16T17:32:33.587Z,12.10
2022-08-16T17:35:17.822Z,11.87
2022-08-16T17:37:51.952Z,11.53
2022-08-16T17:40:40.298Z,11.80
2022-08-16T17:43:10.355Z,10.40
2022-08-16T17:45:40.235Z,10.37
2022-08-16T17:48:08.578Z,10.10
2022-08-16T17:50:36.906Z,10.17
2022-08-16T17:53:06.121Z,9.27
2022-08-16T17:55:35.275Z,10.47
2022-08-16T17:58:20.069Z,9.67
2022-08-16T18:00:53.014Z,11.07
2022-08-16T18:04:02.667Z,11.33
2022-08-16T18:06:13.142Z,11.40
2022-08-16T18:08:42.724Z,13.77
2022-08-16T18:11:13.383Z,13.50
2022-08-16T18:13:43.563Z,13.93
2022-08-16T18:16:14.757Z,12.40
2022-08-16T18:18:43.197Z,12.93
2022-08-16T18:21:29.997Z,13.23
2022-08-16T18:23:58.350Z,14.57
2022-08-16T18:26:26.707Z,15.30
2022-08-16T18:28:55.216Z,14.97
2022-08-16T18:31:25.184Z,15.13
2022-08-16T18:33:55.532Z,14.03
2022-08-16T18:36:24.440Z,14.63
2022-08-16T18:38:52.964Z,16.70
2022-08-16T18:41:21.383Z,14.20
2022-08-16T18:44:23.827Z,15.63
2022-08-16T18:46:39.539Z,14.90
2022-08-16T18:49:07.954Z,18.13
2022-08-16T18:51:36.927Z,17.33
2022-08-16T18:54:05.532Z,20.37
2022-08-16T18:56:57.076Z,19.80
2022-08-16T18:59:25.295Z,19.63
2022-08-16T19:01:59.680Z,19.13
2022-08-16T19:04:57.437Z,18.70
2022-08-16T19:07:17.946Z,18.93
2022-08-16T19:09:46.837Z,18.27
2022-08-16T19:12:16.144Z,18.33
2022-08-16T19:14:45.546Z,18.73
2022-08-16T19:17:15.402Z,19.40
2022-08-16T19:19:43.790Z,19.67
2022-08-16T19:22:12.160Z,19.57
2022-08-16T19:24:40.753Z,18.87
2022-08-16T19:27:13.974Z,19.03
2022-08-16T19:29:42.692Z,20.47
2022-08-16T19:32:19.932Z,20.57
2022-08-16T19:34:48.567Z,20.40
2022-08-16T19:37:17.044Z,20.43
2022-08-16T19:39:45.718Z,20.27
2022-08-16T19:42:14.661Z,20.90
2022-08-16T19:44:42.988Z,21.53
2022-08-16T19:47:11.400Z,22.67
2022-08-16T19:49:41.205Z,23.80
2022-08-16T19:52:16.013Z,24.40
2022-08-16T19:54:44.776Z,22.60
2022-08-16T19:57:13.464Z,23.60
2022-08-16T19:59:49.020Z,23.70
2022-08-16T20:02:32.637Z,24.13
2022-08-16T20:05:06.617Z,25.30
2022-08-16T20:07:35.196Z,24.27
2022-08-16T20:10:03.965Z,23.30
2022-08-16T20:12:32.393Z,25.10
2022-08-16T20:15:00.766Z,25.33
2022-08-16T20:17:29.190Z,27.40
2022-08-16T20:20:00.668Z,29.57
2022-08-16T20:22:52.344Z,29.07
2022-08-16T20:25:28.354Z,28.50
2022-08-16T20:27:57.127Z,30.37
2022-08-16T20:30:25.778Z,28.70
2022-08-16T20:32:54.215Z,29.00
2022-08-16T20:35:23.623Z,28.77
2022-08-16T20:37:53.636Z,29.50
2022-08-16T20:40:33.879Z,32.67
2022-08-16T20:43:05.425Z,31.30
2022-08-16T20:45:34.010Z,30.07
2022-08-16T20:48:02.388Z,30.90
2022-08-16T20:50:30.792Z,31.80
2022-08-16T20:53:00.519Z,34.67
2022-08-16T20:55:29.183Z,35.37
2022-08-16T20:57:57.708Z,37.73
2022-08-16T21:00:26.115Z,37.20
2022-08-16T21:02:54.523Z,37.20
2022-08-16T21:05:23.956Z,36.83
2022-08-16T21:07:54.298Z,39.10
2022-08-16T21:10:24.237Z,38.47
2022-08-16T21:12:52.720Z,39.70
2022-08-16T21:15:21.151Z,40.93
2022-08-16T21:17:49.537Z,40.60
2022-08-16T21:20:18.039Z,42.43
2022-08-16T21:22:53.401Z,42.80
2022-08-16T21:25:24.894Z,44.47
2022-08-16T21:28:38.897Z,45.17
2022-08-16T21:30:42.221Z,44.07
2022-08-16T21:33:11.874Z,42.80
2022-08-16T21:35:40.502Z,44.33
2022-08-16T21:38:29.655Z,43.03
2022-08-16T21:41:00.198Z,41.40
2022-08-16T21:43:31.899Z,44.93
2022-08-16T21:46:00.464Z,44.73
2022-08-16T21:48:34.697Z,46.20
2022-08-16T21:51:04.474Z,45.43
2022-08-16T21:53:32.959Z,43.80
2022-08-16T21:56:02.740Z,45.73
2022-08-16T21:58:34.240Z,46.13
2022-08-16T22:01:02.656Z,44.43
2022-08-16T22:03:32.999Z,46.80
2022-08-16T22:06:12.532Z,48.13
2022-08-16T22:08:49.411Z,46.30
2022-08-16T22:11:20.581Z,45.83
2022-08-16T22:13:51.139Z,47.43
2022-08-16T22:16:26.881Z,47.20
2022-08-16T22:18:55.439Z,45.97
2022-08-16T22:21:26.640Z,43.63
2022-08-16T22:23:58.143Z,42.37
2022-08-16T22:26:30.976Z,44.90
2022-08-16T22:29:00.436Z,44.17
2022-08-16T22:31:29.369Z,44.80
2022-08-16T22:33:57.982Z,45.90
2022-08-16T22:36:28.561Z,46.93
2022-08-16T22:39:00.338Z,49.40
2022-08-16T22:41:31.589Z,49.63
2022-08-16T22:43:59.994Z,51.77
2022-08-16T22:46:28.412Z,52.87
2022-08-16T22:48:56.814Z,52.30
2022-08-16T22:51:25.732Z,52.27
2022-08-16T22:53:54.403Z,51.67
2022-08-16T22:56:22.898Z,52.17
2022-08-16T22:58:52.769Z,52.73
2022-08-16T23:01:21.633Z,54.70
2022-08-16T23:03:50.083Z,52.67
2022-08-16T23:06:18.635Z,53.30
2022-08-16T23:08:47.011Z,52.37
2022-08-16T23:11:21.002Z,54.43
2022-08-16T23:13:54.017Z,54.83
2022-08-16T23:16:32.373Z,54.07
2022-08-16T23:19:02.258Z,55.63
2022-08-16T23:21:30.615Z,55.47
2022-08-16T23:23:59.056Z,54.53
2022-08-16T23:26:43.842Z,55.37
2022-08-16T23:29:24.691Z,52.43
2022-08-16T23:31:56.761Z,52.83
2022-08-16T23:34:25.112Z,52.23
2022-08-16T23:36:53.753Z,53.57
2022-08-16T23:39:22.095Z,52.77
2022-08-16T23:41:50.442Z,50.97
2022-08-16T23:44:56.896Z,50.60
2022-08-16T23:47:09.651Z,50.70
2022-08-16T23:49:56.900Z,50.37
2022-08-16T23:52:54.739Z,51.03
2022-08-16T23:55:17.013Z,50.53
2022-08-16T23:57:45.902Z,48.77
